createdAt,value
2019-03-28T00:01:22.250Z,10.68
2019-03-28T00:03:51.126Z,10.98
2019-03-28T00:06:20.150Z,10.65
2019-03-28T00:08:48.922Z,10.85
2019-03-28T00:11:17.684Z,10.38
2019-03-28T00:13:46.412Z,9.45
2019-03-28T00:16:15.123Z,9.75
2019-03-28T00:18:44.033Z,10.40
2019-03-28T00:21:12.763Z,9.70
2019-03-28T00:23:43.067Z,10.32
2019-03-28T00:26:11.914Z,9.73
2019-03-28T00:28:41.086Z,10.78
2019-03-28T00:31:09.788Z,10.03
2019-03-28T00:33:38.587Z,10.05
2019-03-28T00:36:07.516Z,8.78
2019-03-28T00:38:36.235Z,10.32
2019-03-28T00:41:05.072Z,9.55
2019-03-28T00:43:33.786Z,10.10
2019-03-28T00:46:02.506Z,9.33
2019-03-28T00:48:31.503Z,10.20
2019-03-28T00:51:00.350Z,9.58
2019-03-28T00:53:29.078Z,7.72
2019-03-28T00:55:57.849Z,8.20
2019-03-28T00:58:26.780Z,8.40
2019-03-28T01:00:55.499Z,7.17
2019-03-28T01:03:24.669Z,7.65
2019-03-28T01:05:53.740Z,6.20
2019-03-28T01:08:22.462Z,6.20
2019-03-28T01:10:51.391Z,6.22
2019-03-28T01:13:20.212Z,5.87
2019-03-28T01:15:49.289Z,7.00
2019-03-28T01:18:18.147Z,7.53
2019-03-28T01:20:46.892Z,7.78
2019-03-28T01:23:15.582Z,7.62
2019-03-28T01:25:44.634Z,7.00
2019-03-28T01:28:13.395Z,8.25
2019-03-28T01:30:42.084Z,7.90
2019-03-28T01:33:10.877Z,8.10
2019-03-28T01:35:39.587Z,6.92
2019-03-28T01:38:08.257Z,7.22
2019-03-28T01:40:37.165Z,12.23
2019-03-28T01:43:05.850Z,13.85
2019-03-28T01:45:34.576Z,16.35
2019-03-28T01:48:03.650Z,17.32
2019-03-28T01:50:32.361Z,14.43
2019-03-28T01:53:01.034Z,16.70
2019-03-28T01:55:30.022Z,19.00
2019-03-28T01:57:58.865Z,20.85
2019-03-28T02:00:27.728Z,19.85
2019-03-28T02:02:56.788Z,20.15
2019-03-28T02:05:25.489Z,18.55
2019-03-28T02:07:54.422Z,17.17
2019-03-28T02:10:23.267Z,15.95
2019-03-28T02:12:52.951Z,14.53
2019-03-28T02:15:21.992Z,14.55
2019-03-28T02:17:50.775Z,14.95
2019-03-28T02:20:19.579Z,15.05
2019-03-28T02:22:48.283Z,14.43
2019-03-28T02:25:17.298Z,15.63
2019-03-28T02:27:46.424Z,13.32
2019-03-28T02:30:15.529Z,13.00
2019-03-28T02:32:44.556Z,12.33
2019-03-28T02:35:13.404Z,12.47
2019-03-28T02:37:42.221Z,12.47
2019-03-28T02:40:10.991Z,10.10
2019-03-28T02:42:39.727Z,11.10
2019-03-28T02:45:08.457Z,10.60
2019-03-28T02:47:37.422Z,10.40
2019-03-28T02:50:06.617Z,10.20
2019-03-28T02:52:35.528Z,10.53
2019-03-28T02:55:06.080Z,9.30
2019-03-28T02:57:41.806Z,10.50
2019-03-28T03:00:07.013Z,7.80
2019-03-28T03:02:35.817Z,7.67
2019-03-28T03:05:07.075Z,7.97
2019-03-28T03:10:07.980Z,7.97
2019-03-28T03:12:36.694Z,9.43
2019-03-28T03:15:07.020Z,8.55
2019-03-28T03:17:35.972Z,8.13
2019-03-28T03:20:06.461Z,8.65
2019-03-28T03:22:35.154Z,9.20
2019-03-28T03:25:05.611Z,8.33
2019-03-28T03:27:34.366Z,7.87
2019-03-28T03:30:03.908Z,8.90
2019-03-28T03:32:32.833Z,7.62
2019-03-28T03:35:02.143Z,7.67
2019-03-28T03:37:31.182Z,6.80
2019-03-28T03:39:59.921Z,6.97
2019-03-28T03:42:28.757Z,8.08
2019-03-28T03:44:57.655Z,7.28
2019-03-28T03:47:26.415Z,7.72
2019-03-28T03:49:55.146Z,8.65
2019-03-28T03:52:24.106Z,7.70
2019-03-28T03:54:52.832Z,7.58
2019-03-28T03:57:22.257Z,8.53
2019-03-28T03:59:51.035Z,10.05
2019-03-28T04:02:19.758Z,10.20
2019-03-28T04:04:48.549Z,10.80
2019-03-28T04:07:17.553Z,12.03
2019-03-28T04:09:46.350Z,11.97
2019-03-28T04:12:15.103Z,11.48
2019-03-28T04:14:43.919Z,9.73
2019-03-28T04:17:12.660Z,10.45
2019-03-28T04:19:41.465Z,9.38
2019-03-28T04:22:10.372Z,10.43
2019-03-28T04:24:39.153Z,11.50
2019-03-28T04:27:07.934Z,11.22
2019-03-28T04:29:36.835Z,11.30
2019-03-28T04:32:05.792Z,11.75
2019-03-28T04:34:34.674Z,13.30
2019-03-28T04:37:03.743Z,11.48
2019-03-28T04:39:32.603Z,15.03
2019-03-28T04:42:01.398Z,13.68
2019-03-28T04:44:30.349Z,14.65
2019-03-28T04:46:59.235Z,13.75
2019-03-28T04:49:28.406Z,11.65
2019-03-28T04:51:57.308Z,9.83
2019-03-28T04:54:26.167Z,11.33
2019-03-28T04:56:54.966Z,12.90
2019-03-28T04:59:23.776Z,12.73
2019-03-28T05:02:02.519Z,13.70
2019-03-28T05:04:23.023Z,14.18
2019-03-28T05:06:52.016Z,14.03
2019-03-28T05:09:20.893Z,13.65
2019-03-28T05:11:49.771Z,18.73
2019-03-28T05:14:18.670Z,15.53
2019-03-28T05:16:48.380Z,19.67
2019-03-28T05:19:17.369Z,17.92
2019-03-28T05:21:46.520Z,16.62
2019-03-28T05:24:15.363Z,16.12
2019-03-28T05:26:44.281Z,13.83
2019-03-28T05:29:13.211Z,14.95
2019-03-28T05:31:42.073Z,16.37
2019-03-28T05:34:10.982Z,14.28
2019-03-28T05:36:40.536Z,14.33
2019-03-28T05:39:09.564Z,14.53
2019-03-28T05:41:38.534Z,12.85
2019-03-28T05:44:07.439Z,13.15
2019-03-28T05:46:36.292Z,13.95
2019-03-28T05:49:05.189Z,13.32
2019-03-28T05:51:34.215Z,12.25
2019-03-28T05:54:02.956Z,12.68
2019-03-28T05:56:31.825Z,13.68
2019-03-28T05:59:10.906Z,11.38
2019-03-28T06:01:32.315Z,13.20
2019-03-28T06:04:01.311Z,11.22
2019-03-28T06:06:30.172Z,10.68
2019-03-28T06:08:59.268Z,10.70
2019-03-28T06:11:28.541Z,13.50
2019-03-28T06:13:57.451Z,11.85
2019-03-28T06:16:26.640Z,10.32
2019-03-28T06:18:55.469Z,13.75
2019-03-28T06:21:24.428Z,14.35
2019-03-28T06:23:53.386Z,12.73
2019-03-28T06:26:22.372Z,11.43
2019-03-28T06:28:51.452Z,12.65
2019-03-28T06:31:21.087Z,11.28
2019-03-28T06:33:49.963Z,11.22
2019-03-28T06:36:19.155Z,12.15
2019-03-28T06:38:48.615Z,14.87
2019-03-28T06:41:17.443Z,14.00
2019-03-28T06:43:46.427Z,12.82
2019-03-28T06:46:16.867Z,12.07
2019-03-28T06:48:45.957Z,11.10
2019-03-28T06:51:14.932Z,12.90
2019-03-28T06:53:44.229Z,12.98
2019-03-28T06:56:13.470Z,12.23
2019-03-28T06:58:42.565Z,14.68
2019-03-28T07:01:11.625Z,12.55
2019-03-28T07:03:43.242Z,13.88
2019-03-28T07:06:12.196Z,12.70
2019-03-28T07:08:40.937Z,12.98
2019-03-28T07:11:11.495Z,12.47
2019-03-28T07:13:40.319Z,14.68
2019-03-28T07:16:09.336Z,13.95
2019-03-28T07:18:38.679Z,14.83
2019-03-28T07:21:08.034Z,14.38
2019-03-28T07:23:37.086Z,12.30
2019-03-28T07:26:06.194Z,13.10
2019-03-28T07:28:36.231Z,13.45
2019-03-28T07:31:05.193Z,12.45
2019-03-28T07:33:38.142Z,15.95
2019-03-28T07:36:07.206Z,13.38
2019-03-28T07:38:36.134Z,13.68
2019-03-28T07:41:04.944Z,13.30
2019-03-28T07:43:33.638Z,13.15
2019-03-28T07:46:02.745Z,12.18
2019-03-28T07:48:31.519Z,11.57
2019-03-28T07:51:00.299Z,15.48
2019-03-28T07:53:29.314Z,11.70
2019-03-28T07:55:58.178Z,11.60
2019-03-28T07:58:26.868Z,10.75
2019-03-28T08:00:56.132Z,11.15
2019-03-28T08:03:24.914Z,12.70
2019-03-28T08:05:54.480Z,10.23
2019-03-28T08:08:23.764Z,10.78
2019-03-28T08:10:52.698Z,13.38
2019-03-28T08:13:21.499Z,12.40
2019-03-28T08:15:50.368Z,10.58
2019-03-28T08:18:19.574Z,9.98
2019-03-28T08:20:48.644Z,9.63
2019-03-28T08:23:17.743Z,11.83
2019-03-28T08:25:46.581Z,9.43
2019-03-28T08:28:15.402Z,10.40
2019-03-28T08:30:45.466Z,9.30
2019-03-28T08:33:14.809Z,10.35
2019-03-28T08:35:43.903Z,11.25
2019-03-28T08:38:12.916Z,8.23
2019-03-28T08:40:44.938Z,10.32
2019-03-28T08:43:14.793Z,8.80
2019-03-28T08:45:44.274Z,8.98
2019-03-28T08:48:13.145Z,9.15
2019-03-28T08:50:42.164Z,8.95
2019-03-28T08:53:11.264Z,9.25
2019-03-28T08:55:40.021Z,9.45
2019-03-28T08:58:14.665Z,9.68
2019-03-28T09:00:52.267Z,9.80
2019-03-28T09:03:17.896Z,9.95
2019-03-28T09:05:46.752Z,12.18
2019-03-28T09:08:18.253Z,8.95
2019-03-28T09:10:50.228Z,8.70
2019-03-28T09:13:19.284Z,8.68
2019-03-28T09:15:48.308Z,9.20
2019-03-28T09:18:17.100Z,9.30
2019-03-28T09:20:46.039Z,9.55
2019-03-28T09:23:16.229Z,9.25
2019-03-28T09:25:45.124Z,7.85
2019-03-28T09:28:13.914Z,9.38
2019-03-28T09:30:48.886Z,7.95
2019-03-28T09:35:42.155Z,7.08
2019-03-28T09:38:13.192Z,7.80
2019-03-28T09:40:42.182Z,7.72
2019-03-28T09:43:10.984Z,7.00
2019-03-28T09:45:40.265Z,6.67
2019-03-28T09:48:11.760Z,6.80
2019-03-28T09:50:39.534Z,8.03
2019-03-28T09:53:08.594Z,6.65
2019-03-28T09:55:37.474Z,6.72
2019-03-28T09:58:07.974Z,5.62
2019-03-28T10:00:37.028Z,6.40
2019-03-28T10:03:05.855Z,6.40
2019-03-28T10:05:37.819Z,6.62
2019-03-28T10:08:05.330Z,5.53
2019-03-28T10:10:34.207Z,4.72
2019-03-28T10:13:03.631Z,6.47
2019-03-28T10:15:32.645Z,6.20
2019-03-28T10:18:01.567Z,5.87
2019-03-28T10:20:30.790Z,5.33
2019-03-28T10:23:00.208Z,6.20
2019-03-28T10:25:29.391Z,7.10
2019-03-28T10:27:59.070Z,6.17
2019-03-28T10:30:47.837Z,6.70
2019-03-28T10:33:18.014Z,5.40
2019-03-28T10:35:47.080Z,5.47
2019-03-28T10:38:16.173Z,5.30
2019-03-28T10:40:47.121Z,5.97
2019-03-28T10:43:15.860Z,5.47
2019-03-28T10:45:44.851Z,4.92
2019-03-28T10:48:15.418Z,4.62
2019-03-28T10:50:46.055Z,3.98
2019-03-28T10:53:14.618Z,4.67
2019-03-28T10:55:43.437Z,4.60
2019-03-28T10:58:18.783Z,4.60
2019-03-28T11:00:42.684Z,4.60
2019-03-28T11:03:11.486Z,4.45
2019-03-28T11:05:40.681Z,4.62
2019-03-28T11:08:09.773Z,4.15
2019-03-28T11:10:38.538Z,5.05
2019-03-28T11:13:09.467Z,4.53
2019-03-28T11:15:37.795Z,6.50
2019-03-28T11:18:06.688Z,6.35
2019-03-28T11:20:35.820Z,5.67
2019-03-28T11:23:07.222Z,5.30
2019-03-28T11:25:36.480Z,5.53
2019-03-28T11:28:05.312Z,4.85
2019-03-28T11:30:34.293Z,4.85
2019-03-28T11:33:06.326Z,5.75
2019-03-28T11:35:35.225Z,5.40
2019-03-28T11:38:04.185Z,6.97
2019-03-28T11:40:33.299Z,7.28
2019-03-28T11:43:02.236Z,5.92
2019-03-28T11:45:31.795Z,5.83
2019-03-28T11:48:00.988Z,4.75
2019-03-28T11:50:29.795Z,6.83
2019-03-28T11:52:58.720Z,5.05
2019-03-28T11:55:27.591Z,4.80
2019-03-28T11:57:56.586Z,4.72
2019-03-28T12:00:26.783Z,5.28
2019-03-28T12:02:56.883Z,5.70
2019-03-28T12:05:28.345Z,5.72
2019-03-28T12:07:57.671Z,4.67
2019-03-28T12:10:27.249Z,5.65
2019-03-28T12:12:56.095Z,4.75
2019-03-28T12:15:24.986Z,2.80
2019-03-28T12:17:53.844Z,2.45
2019-03-28T12:20:22.738Z,1.95
2019-03-28T12:22:51.535Z,2.33
2019-03-28T12:25:20.347Z,1.60
2019-03-28T12:27:49.297Z,3.00
2019-03-28T12:30:18.253Z,2.55
2019-03-28T12:32:47.207Z,2.85
2019-03-28T12:35:16.218Z,2.67
2019-03-28T12:37:45.186Z,2.22
2019-03-28T12:40:14.157Z,1.60
2019-03-28T12:42:42.912Z,2.33
2019-03-28T12:45:12.073Z,3.45
2019-03-28T12:47:42.617Z,3.08
2019-03-28T12:50:11.938Z,2.83
2019-03-28T12:52:41.043Z,2.80
2019-03-28T12:55:10.933Z,2.02
2019-03-28T12:57:39.783Z,2.27
2019-03-28T13:00:10.705Z,3.62
2019-03-28T13:02:40.145Z,2.50
2019-03-28T13:05:09.609Z,2.85
2019-03-28T13:07:38.494Z,3.77
2019-03-28T13:10:08.328Z,3.60
2019-03-28T13:12:37.994Z,3.12
2019-03-28T13:15:06.950Z,2.42
2019-03-28T13:17:36.211Z,2.58
2019-03-28T13:20:08.309Z,2.70
2019-03-28T13:22:37.426Z,1.92
2019-03-28T13:25:07.727Z,2.55
2019-03-28T13:27:37.069Z,2.63
2019-03-28T13:30:13.990Z,1.72
2019-03-28T13:32:42.907Z,1.95
2019-03-28T13:35:12.075Z,3.45
2019-03-28T13:37:42.475Z,1.82
2019-03-28T13:40:11.433Z,1.77
2019-03-28T13:42:40.311Z,1.50
2019-03-28T13:45:09.832Z,3.02
2019-03-28T13:47:38.731Z,1.70
2019-03-28T13:50:08.953Z,1.62
2019-03-28T13:52:49.797Z,2.22
2019-03-28T13:55:18.748Z,2.33
2019-03-28T13:57:48.140Z,1.82
2019-03-28T14:00:20.356Z,2.70
2019-03-28T14:02:57.104Z,3.00
2019-03-28T14:05:20.107Z,3.12
2019-03-28T14:07:49.129Z,3.50
2019-03-28T14:10:22.036Z,2.20
2019-03-28T14:12:51.173Z,2.60
2019-03-28T14:15:19.903Z,2.37
2019-03-28T14:17:48.905Z,1.70
2019-03-28T14:20:17.657Z,2.37
2019-03-28T14:22:46.434Z,2.33
2019-03-28T14:25:15.166Z,3.12
2019-03-28T14:27:43.925Z,3.60
2019-03-28T14:30:12.729Z,3.20
2019-03-28T14:32:52.477Z,3.08
2019-03-28T14:35:11.986Z,1.63
2019-03-28T14:37:40.912Z,1.70
2019-03-28T14:40:10.713Z,1.62
2019-03-28T14:42:40.802Z,1.32
2019-03-28T14:45:09.984Z,1.53
2019-03-28T14:47:42.814Z,1.90
2019-03-28T14:50:11.892Z,1.92
2019-03-28T14:52:40.981Z,1.80
2019-03-28T14:55:11.841Z,2.60
2019-03-28T14:57:41.742Z,1.92
2019-03-28T15:00:33.784Z,1.67
2019-03-28T15:03:05.754Z,2.08
2019-03-28T15:05:34.671Z,1.95
2019-03-28T15:08:04.983Z,1.55
2019-03-28T15:10:34.044Z,1.47
2019-03-28T15:13:04.891Z,1.57
2019-03-28T15:15:34.188Z,1.70
2019-03-28T15:18:03.929Z,1.82
2019-03-28T15:20:33.757Z,1.60
2019-03-28T15:23:02.823Z,1.55
2019-03-28T15:25:31.814Z,1.70
2019-03-28T15:28:00.745Z,1.75
2019-03-28T15:30:31.287Z,1.90
2019-03-28T15:33:00.876Z,1.70
2019-03-28T15:35:29.846Z,1.80
2019-03-28T15:37:58.791Z,1.80
2019-03-28T15:40:27.912Z,1.70
2019-03-28T15:42:57.320Z,2.15
2019-03-28T15:45:26.148Z,2.05
2019-03-28T15:47:56.817Z,2.17
2019-03-28T15:50:25.798Z,2.67
2019-03-28T15:52:54.958Z,1.70
2019-03-28T15:55:24.101Z,2.17
2019-03-28T15:57:53.009Z,2.45
2019-03-28T16:00:22.070Z,2.30
2019-03-28T16:02:51.195Z,1.90
2019-03-28T16:05:20.313Z,2.72
2019-03-28T16:07:49.666Z,2.85
2019-03-28T16:10:18.585Z,3.05
2019-03-28T16:12:47.655Z,3.25
2019-03-28T16:15:17.077Z,3.95
2019-03-28T16:17:46.146Z,3.22
2019-03-28T16:20:15.468Z,3.20
2019-03-28T16:22:44.761Z,2.42
2019-03-28T16:25:13.634Z,3.30
2019-03-28T16:27:42.556Z,3.67
2019-03-28T16:30:12.753Z,3.98
2019-03-28T16:32:41.619Z,3.72
2019-03-28T16:35:10.431Z,4.08
2019-03-28T16:37:39.473Z,3.10
2019-03-28T16:40:08.462Z,3.05
2019-03-28T16:42:37.299Z,4.10
2019-03-28T16:45:07.976Z,3.12
2019-03-28T16:47:36.826Z,3.08
2019-03-28T16:50:05.723Z,3.50
2019-03-28T16:52:34.509Z,4.17
2019-03-28T16:55:03.440Z,3.95
2019-03-28T16:57:32.296Z,4.92
2019-03-28T17:00:02.265Z,3.87
2019-03-28T17:02:31.072Z,4.37
2019-03-28T17:04:59.854Z,5.05
2019-03-28T17:07:28.849Z,4.45
2019-03-28T17:09:57.846Z,3.83
2019-03-28T17:12:26.736Z,3.92
2019-03-28T17:14:55.770Z,4.28
2019-03-28T17:17:25.989Z,5.08
2019-03-28T17:19:56.517Z,4.62
2019-03-28T17:22:25.349Z,3.80
2019-03-28T17:24:54.324Z,3.08
2019-03-28T17:27:23.403Z,3.20
2019-03-28T17:29:52.337Z,3.27
2019-03-28T17:32:21.430Z,3.70
2019-03-28T17:34:51.969Z,3.30
2019-03-28T17:37:21.118Z,3.80
2019-03-28T17:39:50.130Z,2.98
2019-03-28T17:42:18.889Z,2.42
2019-03-28T17:44:47.671Z,2.83
2019-03-28T17:47:16.542Z,3.33
2019-03-28T17:49:46.493Z,3.37
2019-03-28T17:52:15.768Z,3.12
2019-03-28T17:54:44.660Z,3.42
2019-03-28T17:57:13.772Z,3.30
2019-03-28T17:59:45.250Z,3.15
2019-03-28T18:02:13.499Z,4.30
2019-03-28T18:04:47.729Z,4.30
2019-03-28T18:07:12.691Z,4.33
2019-03-28T18:09:41.529Z,3.90
2019-03-28T18:12:10.331Z,3.42
2019-03-28T18:14:39.050Z,3.90
2019-03-28T18:17:07.975Z,5.22
2019-03-28T18:19:36.765Z,3.72
2019-03-28T18:22:05.795Z,3.50
2019-03-28T18:24:34.610Z,4.03
2019-03-28T18:27:03.344Z,3.92
2019-03-28T18:29:32.206Z,3.35
2019-03-28T18:32:00.996Z,2.67
2019-03-28T18:34:29.776Z,3.33
2019-03-28T18:36:58.477Z,3.08
2019-03-28T18:39:27.552Z,3.83
2019-03-28T18:41:57.271Z,4.12
2019-03-28T18:44:26.012Z,3.90
2019-03-28T18:46:54.973Z,4.95
2019-03-28T18:49:23.741Z,5.00
2019-03-28T18:51:52.548Z,4.70
2019-03-28T18:54:21.370Z,4.47
2019-03-28T18:56:50.207Z,4.00
2019-03-28T18:59:20.150Z,3.52
2019-03-28T19:01:49.002Z,3.98
2019-03-28T19:04:17.747Z,3.30
2019-03-28T19:06:46.473Z,4.55
2019-03-28T19:09:15.359Z,4.05
2019-03-28T19:11:44.122Z,3.65
2019-03-28T19:14:13.610Z,3.12
2019-03-28T19:16:42.448Z,3.22
2019-03-28T19:19:11.197Z,2.45
2019-03-28T19:21:39.884Z,3.17
2019-03-28T19:24:08.641Z,2.40
2019-03-28T19:26:37.351Z,2.40
2019-03-28T19:29:06.283Z,2.58
2019-03-28T19:31:35.303Z,3.22
2019-03-28T19:34:04.131Z,3.37
2019-03-28T19:36:34.176Z,3.00
2019-03-28T19:39:03.417Z,3.10
2019-03-28T19:41:32.207Z,3.08
2019-03-28T19:44:01.121Z,2.85
2019-03-28T19:46:30.095Z,5.15
2019-03-28T19:48:58.925Z,2.70
2019-03-28T19:51:28.509Z,2.87
2019-03-28T19:53:57.386Z,3.00
2019-03-28T19:56:26.237Z,3.47
2019-03-28T19:58:57.385Z,3.70
2019-03-28T20:01:25.910Z,3.67
2019-03-28T20:03:55.179Z,3.98
2019-03-28T20:06:24.409Z,3.40
2019-03-28T20:08:53.568Z,3.50
2019-03-28T20:11:22.327Z,3.35
2019-03-28T20:13:51.180Z,3.67
2019-03-28T20:16:21.768Z,3.47
2019-03-28T20:18:50.651Z,3.22
2019-03-28T20:21:19.393Z,4.25
2019-03-28T20:23:48.953Z,3.00
2019-03-28T20:26:19.771Z,3.05
2019-03-28T20:28:48.421Z,3.23
2019-03-28T20:31:17.216Z,2.87
2019-03-28T20:33:45.931Z,2.90
2019-03-28T20:36:36.170Z,2.50
2019-03-28T20:38:45.306Z,2.67
2019-03-28T20:41:14.047Z,2.70
2019-03-28T20:43:43.364Z,3.15
2019-03-28T20:46:12.145Z,3.83
2019-03-28T20:48:40.916Z,3.30
2019-03-28T20:51:09.658Z,2.58
2019-03-28T20:53:38.450Z,2.87
2019-03-28T20:56:07.157Z,3.37
2019-03-28T20:58:35.988Z,2.40
2019-03-28T21:01:05.096Z,2.80
2019-03-28T21:03:34.340Z,2.58
2019-03-28T21:06:14.694Z,2.72
2019-03-28T21:08:33.499Z,3.07
2019-03-28T21:11:02.240Z,2.85
2019-03-28T21:13:31.078Z,2.58
2019-03-28T21:15:59.920Z,2.67
2019-03-28T21:18:29.466Z,3.37
2019-03-28T21:20:58.150Z,2.42
2019-03-28T21:23:28.021Z,2.08
2019-03-28T21:25:56.976Z,2.58
2019-03-28T21:28:26.841Z,2.17
2019-03-28T21:30:58.780Z,3.60
2019-03-28T21:33:26.202Z,2.60
2019-03-28T21:35:54.934Z,2.70
2019-03-28T21:38:23.804Z,2.30
2019-03-28T21:40:53.173Z,2.45
2019-03-28T21:43:24.145Z,3.33
2019-03-28T21:45:53.580Z,2.55
2019-03-28T21:48:22.266Z,2.72
2019-03-28T21:50:51.011Z,2.70
2019-03-28T21:53:20.165Z,3.17
2019-03-28T21:55:54.937Z,3.08
2019-03-28T21:58:19.346Z,2.67
2019-03-28T22:00:48.085Z,2.95
2019-03-28T22:03:17.199Z,3.00
2019-03-28T22:05:46.230Z,2.52
2019-03-28T22:08:15.562Z,2.90
2019-03-28T22:10:44.308Z,4.00
2019-03-28T22:13:13.134Z,3.35
2019-03-28T22:15:41.901Z,2.65
2019-03-28T22:18:10.769Z,3.10
2019-03-28T22:20:40.055Z,2.47
2019-03-28T22:23:08.998Z,2.47
2019-03-28T22:25:37.909Z,2.67
2019-03-28T22:28:06.718Z,2.55
2019-03-28T22:30:35.601Z,3.22
2019-03-28T22:33:04.341Z,2.90
2019-03-28T22:35:33.262Z,3.55
2019-03-28T22:38:02.009Z,2.98
2019-03-28T22:40:31.035Z,2.92
2019-03-28T22:42:59.933Z,2.45
2019-03-28T22:45:28.743Z,2.67
2019-03-28T22:48:10.161Z,2.90
2019-03-28T22:50:28.604Z,2.45
2019-03-28T22:52:57.295Z,2.60
2019-03-28T22:55:26.025Z,2.60
2019-03-28T22:57:54.896Z,2.92
2019-03-28T23:00:47.846Z,2.47
2019-03-28T23:03:17.376Z,2.27
2019-03-28T23:05:46.176Z,2.85
2019-03-28T23:08:14.927Z,2.47
2019-03-28T23:10:43.627Z,2.55
2019-03-28T23:13:12.307Z,2.40
2019-03-28T23:15:41.068Z,2.98
2019-03-28T23:18:28.033Z,2.40
2019-03-28T23:20:58.363Z,3.00
2019-03-28T23:23:27.134Z,2.70
2019-03-28T23:25:55.855Z,2.72
2019-03-28T23:28:24.822Z,3.22
2019-03-28T23:30:54.210Z,2.72
2019-03-28T23:33:23.702Z,2.65
2019-03-28T23:35:52.573Z,2.45
2019-03-28T23:38:21.371Z,2.33
2019-03-28T23:40:50.089Z,2.50
2019-03-28T23:43:18.973Z,2.77
2019-03-28T23:45:47.672Z,2.17
2019-03-28T23:48:16.373Z,2.52
2019-03-28T23:50:46.948Z,3.27
2019-03-28T23:53:15.624Z,2.77
2019-03-28T23:55:44.983Z,3.02
2019-03-28T23:58:14.055Z,3.35
